Time;durP1;ratioP1;P1;durP2;ratioP2;P2;SDS_P1;SDS_P2;PMS_P1;PMS_P2;Temp;Humidity;BMP_temperature;BMP_pressure;BME280_temperature;BME280_humidity;BME280_pressure;Samples;Min_cycle;Max_cycle;Signal;HPM_P1;HPM_P2
2022/05/11 00:00:08;;;;;;;5.35;4.85;;;;;;;19.25;60.33;96804.25;5014190;28;20187;-71
2022/05/11 00:02:34;;;;;;;5.70;5.20;;;;;;;19.08;61.18;96801.22;5013724;28;20196;-71
2022/05/11 00:04:59;;;;;;;5.55;5.15;;;;;;;19.17;61.01;96806.72;5014171;28;20353;-71
2022/05/11 00:07:25;;;;;;;5.47;4.97;;;;;;;19.05;61.27;96794.63;5007016;28;20648;-71
2022/05/11 00:09:50;;;;;;;5.28;4.78;;;;;;;19.10;61.01;96802.53;5013520;28;20547;-71
2022/05/11 00:12:15;;;;;;;6.07;5.05;;;;;;;19.16;60.60;96794.50;5013938;28;20191;-71
2022/05/11 00:14:41;;;;;;;4.75;4.43;;;;;;;19.06;60.43;96795.38;5013602;28;20624;-71
2022/05/11 00:17:06;;;;;;;5.10;4.40;;;;;;;19.06;60.72;96792.72;5013673;28;20564;-71
2022/05/11 00:19:32;;;;;;;4.68;4.28;;;;;;;19.03;60.48;96796.75;5012753;28;20289;-71
2022/05/11 00:21:57;;;;;;;5.72;4.55;;;;;;;19.06;60.20;96790.06;5013709;28;20257;-71
2022/05/11 00:24:25;;;;;;;4.68;4.28;;;;;;;18.91;60.83;96785.69;5013166;28;20239;-71
2022/05/11 00:26:50;;;;;;;4.60;4.20;;;;;;;18.87;60.29;96782.00;5013639;28;20190;-71
2022/05/11 00:29:16;;;;;;;4.65;4.15;;;;;;;18.90;59.96;96778.78;5013548;28;20187;-71
2022/05/11 00:31:42;;;;;;;4.40;4.00;;;;;;;18.90;59.41;96789.41;5013904;28;20249;-71
2022/05/11 00:34:07;;;;;;;5.25;3.95;;;;;;;18.92;59.36;96779.31;5013563;28;20183;-71
2022/05/11 00:36:32;;;;;;;7.43;3.75;;;;;;;19.03;58.93;96777.34;5013798;28;20195;-71
2022/05/11 00:38:58;;;;;;;4.20;3.90;;;;;;;18.99;59.13;96777.13;5013532;28;20230;-71
2022/05/11 00:41:23;;;;;;;4.30;3.70;;;;;;;18.93;59.45;96777.44;5013834;28;20214;-71
2022/05/11 00:44:01;;;;;;;4.22;3.90;;;;;;;18.91;59.58;96774.28;5013535;28;20290;-71
2022/05/11 00:46:39;;;;;;;4.53;4.13;;;;;;;18.94;59.90;96777.19;5012541;28;20211;-71
2022/05/11 00:52:01;;;;;;;4.35;3.95;;;;;;;18.85;60.58;96773.53;5013389;28;20217;-71
2022/05/11 00:54:29;;;;;;;4.88;4.47;;;;;;;18.89;60.64;96769.22;5014014;28;20198;-71
2022/05/11 00:57:00;;;;;;;4.20;3.80;;;;;;;18.89;60.85;96768.47;5013137;28;20321;-71
2022/05/11 00:59:30;;;;;;;4.70;4.25;;;;;;;18.76;61.20;96763.78;5012990;28;20180;-71
2022/05/11 01:01:59;;;;;;;4.55;4.15;;;;;;;18.68;61.82;96760.66;5013416;28;20262;-71
2022/05/11 01:04:25;;;;;;;4.80;4.40;;;;;;;18.68;61.63;96759.88;5012616;28;20250;-71
2022/05/11 01:06:51;;;;;;;4.63;4.23;;;;;;;18.65;61.80;96760.44;5006896;28;20206;-71
2022/05/11 01:09:16;;;;;;;3.90;3.60;;;;;;;18.62;61.79;96760.97;4995376;28;20278;-71
2022/05/11 01:11:49;;;;;;;4.50;4.20;;;;;;;18.74;61.27;96755.31;5013121;28;20179;-71
2022/05/11 01:14:19;;;;;;;4.88;4.35;;;;;;;18.76;61.42;96764.59;5013314;28;20215;-71
2022/05/11 01:16:46;;;;;;;5.00;4.43;;;;;;;18.69;61.92;96766.75;5012684;28;20171;-71
2022/05/11 01:19:28;;;;;;;4.68;4.10;;;;;;;18.59;62.25;96759.69;5013023;28;20191;-72
2022/05/11 01:22:21;;;;;;;4.43;4.05;;;;;;;18.63;62.42;96757.25;5012779;28;20187;-71
2022/05/11 01:24:48;;;;;;;5.25;4.38;;;;;;;18.44;63.31;96761.63;5012576;28;20184;-72
2022/05/11 01:27:25;;;;;;;4.97;4.37;;;;;;;18.50;62.88;96763.94;4995438;28;20280;-71
2022/05/11 01:29:51;;;;;;;6.20;4.57;;;;;;;18.51;63.30;96762.88;5013142;28;20198;-71
2022/05/11 01:32:19;;;;;;;4.97;4.30;;;;;;;18.41;63.51;96765.63;5013208;28;20183;-71
2022/05/11 01:34:45;;;;;;;5.05;4.55;;;;;;;18.49;63.08;96757.09;5012086;28;20219;-71
2022/05/11 01:37:11;;;;;;;5.13;4.63;;;;;;;18.49;63.14;96762.38;5012583;28;20656;-71
2022/05/11 01:39:37;;;;;;;5.10;4.60;;;;;;;18.39;63.71;96756.38;5013783;28;20186;-70
2022/05/11 01:42:03;;;;;;;6.07;4.50;;;;;;;18.43;63.50;96760.84;4997591;28;20183;-70
2022/05/11 01:44:28;;;;;;;4.68;4.25;;;;;;;18.43;63.34;96752.88;5012644;28;20687;-72
2022/05/11 01:46:57;;;;;;;5.10;4.60;;;;;;;18.43;63.60;96760.84;5012689;28;20195;-71
2022/05/11 01:49:24;;;;;;;5.10;4.63;;;;;;;18.52;63.37;96758.38;5012313;28;20179;-71
2022/05/11 01:51:49;;;;;;;4.57;4.17;;;;;;;18.48;63.39;96754.69;5012781;28;20223;-70
2022/05/11 01:54:15;;;;;;;5.10;4.63;;;;;;;18.50;63.62;96756.00;5012349;28;20791;-71
2022/05/11 01:56:41;;;;;;;5.38;4.68;;;;;;;18.48;63.54;96752.03;5012898;28;20245;-71
2022/05/11 01:59:06;;;;;;;4.47;4.07;;;;;;;18.43;63.90;96750.22;5016310;28;20225;-71
2022/05/11 02:01:34;;;;;;;4.78;4.38;;;;;;;18.38;64.12;96750.25;5016913;28;20561;-71
2022/05/11 02:04:00;;;;;;;5.33;4.50;;;;;;;18.44;63.83;96749.16;5016010;28;20668;-71
2022/05/11 02:09:12;;;;;;;5.27;4.87;;;;;;;18.32;64.29;96745.25;5003621;28;20190;-71
2022/05/11 02:11:38;;;;;;;5.53;4.60;;;;;;;18.32;64.31;96754.03;5016289;28;20623;-71
2022/05/11 02:14:03;;;;;;;5.83;4.83;;;;;;;18.23;65.06;96753.00;5016331;28;20195;-71
2022/05/11 02:16:29;;;;;;;5.47;5.03;;;;;;;18.31;65.01;96752.44;5016126;28;20179;-71
2022/05/11 02:18:55;;;;;;;5.43;4.73;;;;;;;18.27;65.11;96754.06;5015257;28;20236;-71
2022/05/11 02:21:21;;;;;;;7.10;4.47;;;;;;;18.18;65.48;96750.38;5015725;28;20199;-71
2022/05/11 02:23:50;;;;;;;5.13;4.73;;;;;;;18.18;65.58;96753.03;5015746;28;20206;-71
2022/05/11 02:26:16;;;;;;;5.33;4.67;;;;;;;18.10;66.30;96756.28;5015797;28;20656;-71
2022/05/11 02:28:42;;;;;;;5.55;5.05;;;;;;;18.10;66.38;96754.44;4998299;28;20183;-71
2022/05/11 02:31:08;;;;;;;4.90;4.50;;;;;;;18.04;66.47;96750.22;5016117;28;20202;-70
2022/05/11 02:33:34;;;;;;;5.23;4.73;;;;;;;18.06;66.70;96749.94;4998363;28;20187;-71
2022/05/11 02:35:59;;;;;;;5.73;4.90;;;;;;;18.06;66.54;96756.03;4999897;28;20190;-70
2022/05/11 02:38:28;;;;;;;6.88;4.93;;;;;;;18.16;66.35;96749.88;5016113;28;20552;-70
2022/05/11 02:40:53;;;;;;;5.13;4.73;;;;;;;18.07;66.53;96744.34;5015736;28;20279;-70
2022/05/11 02:43:19;;;;;;;5.20;4.60;;;;;;;18.02;66.87;96744.38;5015572;28;20286;-70
2022/05/11 02:45:46;;;;;;;5.50;4.60;;;;;;;17.91;67.21;96747.38;5015386;28;20262;-70
2022/05/11 02:48:15;;;;;;;6.90;5.10;;;;;;;17.79;67.79;96748.50;5015539;28;20274;-70
2022/05/11 02:50:53;;;;;;;6.07;5.43;;;;;;;17.73;67.97;96741.63;5015259;28;20188;-70
2022/05/11 02:53:19;;;;;;;5.33;4.83;;;;;;;17.80;67.87;96739.47;5015262;28;20233;-71
2022/05/11 02:55:47;;;;;;;5.80;5.20;;;;;;;17.78;67.74;96741.59;5015414;28;20179;-71
2022/05/11 02:58:15;;;;;;;6.07;5.57;;;;;;;17.53;68.87;96741.69;4997760;28;20183;-70
2022/05/11 03:00:44;;;;;;;5.90;5.33;;;;;;;17.55;68.83;96746.72;5015460;28;20183;-70
2022/05/11 03:03:11;;;;;;;7.23;5.97;;;;;;;17.52;68.91;96752.56;4997318;28;20209;-70
2022/05/11 03:05:37;;;;;;;6.23;5.63;;;;;;;17.49;68.95;96750.47;5010993;28;20246;-70
2022/05/11 03:08:03;;;;;;;6.20;5.70;;;;;;;17.33;69.63;96747.84;5006523;28;20190;-70
2022/05/11 03:10:28;;;;;;;6.40;5.90;;;;;;;17.35;69.84;96744.94;4996987;28;20574;-71
2022/05/11 03:12:54;;;;;;;5.87;5.40;;;;;;;17.38;69.28;96749.72;5015146;28;20187;-69
2022/05/11 03:15:21;;;;;;;5.57;5.07;;;;;;;17.47;69.18;96745.44;5014873;28;20180;-70
2022/05/11 03:17:46;;;;;;;6.13;5.47;;;;;;;17.34;69.40;96738.84;5014337;28;20258;-70
2022/05/11 03:20:12;;;;;;;6.23;5.73;;;;;;;17.33;69.51;96736.47;5013818;28;20223;-70
2022/05/11 03:22:38;;;;;;;5.77;5.23;;;;;;;17.29;69.27;96741.50;5014707;28;20199;-70
2022/05/11 03:25:05;;;;;;;6.20;5.67;;;;;;;17.28;69.19;96734.63;5014427;28;20195;-71
2022/05/11 03:27:31;;;;;;;6.13;5.33;;;;;;;17.31;69.13;96743.91;4989770;28;20194;-71
2022/05/11 03:29:56;;;;;;;6.70;6.10;;;;;;;17.19;69.24;96743.41;5014636;28;20187;-71
2022/05/11 03:35:08;;;;;;;6.03;5.43;;;;;;;17.21;69.63;96733.34;5014500;28;20225;-70
2022/05/11 03:37:34;;;;;;;6.30;5.80;;;;;;;17.08;69.84;96737.34;5014802;28;20317;-70
2022/05/11 03:40:00;;;;;;;6.23;5.70;;;;;;;17.08;69.81;96740.00;5029639;28;20270;-70
2022/05/11 03:42:30;;;;;;;5.90;5.00;;;;;;;17.01;70.15;96732.31;5014755;28;20179;-70
2022/05/11 03:45:05;;;;;;;5.67;5.10;;;;;;;17.03;70.09;96735.50;5014572;28;20194;-71
2022/05/11 03:47:31;;;;;;;6.10;5.50;;;;;;;16.96;70.13;96734.97;5014488;28;20591;-70
2022/05/11 03:49:56;;;;;;;5.90;5.40;;;;;;;16.94;70.42;96736.31;5014654;28;20269;-70
2022/05/11 03:52:23;;;;;;;5.80;5.30;;;;;;;16.96;70.51;96737.63;5014299;28;20228;-70
2022/05/11 03:54:48;;;;;;;6.37;5.63;;;;;;;16.63;71.58;96736.34;5014558;28;20233;-70
2022/05/11 03:57:13;;;;;;;5.80;5.30;;;;;;;16.59;72.13;96731.84;5014364;28;20603;-71
2022/05/11 03:59:39;;;;;;;6.17;5.60;;;;;;;16.81;70.97;96736.88;5014357;28;20191;-70
2022/05/11 04:02:04;;;;;;;6.87;5.53;;;;;;;16.83;71.01;96737.41;5014297;28;20194;-70
2022/05/11 04:04:30;;;;;;;6.87;5.87;;;;;;;16.72;71.69;96725.25;5013971;28;20300;-70
2022/05/11 04:06:55;;;;;;;6.30;5.40;;;;;;;16.76;71.69;96735.03;4998066;28;20216;-70
2022/05/11 04:09:20;;;;;;;5.97;5.37;;;;;;;16.68;71.78;96732.91;5014041;28;20266;-70
2022/05/11 04:11:46;;;;;;;6.20;5.60;;;;;;;16.67;72.23;96727.88;5013572;28;20184;-70
2022/05/11 04:14:11;;;;;;;7.17;5.13;;;;;;;16.64;71.93;96729.22;5013759;28;20187;-70
2022/05/11 04:16:37;;;;;;;6.30;5.70;;;;;;;16.79;71.58;96733.69;5013595;28;20644;-70
2022/05/11 04:19:02;;;;;;;7.30;6.57;;;;;;;16.58;72.22;96736.31;5013905;28;20647;-71
2022/05/11 04:21:27;;;;;;;6.40;5.80;;;;;;;16.74;71.85;96731.84;5013166;28;20289;-70
2022/05/11 04:23:53;;;;;;;6.07;5.57;;;;;;;16.73;71.71;96737.38;5013360;28;20211;-70
2022/05/11 04:26:18;;;;;;;7.33;6.63;;;;;;;16.77;71.76;96736.63;5013718;28;20190;-71
2022/05/11 04:28:44;;;;;;;7.30;6.37;;;;;;;16.78;71.89;96737.38;5013592;28;20261;-71
2022/05/11 04:31:12;;;;;;;7.17;6.03;;;;;;;16.96;70.93;96744.78;5013617;28;20187;-70
2022/05/11 04:33:38;;;;;;;6.10;5.60;;;;;;;16.98;70.49;96740.00;5012919;28;20533;-70
2022/05/11 04:36:04;;;;;;;6.33;5.77;;;;;;;17.01;70.40;96742.13;5013978;28;20187;-70
2022/05/11 04:38:30;;;;;;;6.10;5.50;;;;;;;16.93;70.42;96729.44;5013849;28;20193;-70
2022/05/11 04:40:56;;;;;;;5.90;5.40;;;;;;;17.01;70.31;96737.63;5013091;28;20183;-70
2022/05/11 04:43:21;;;;;;;5.57;5.07;;;;;;;17.19;69.55;96740.75;5012826;28;20206;-70
2022/05/11 04:45:47;;;;;;;6.07;5.17;;;;;;;17.01;70.44;96740.25;5013433;28;20682;-70
2022/05/11 04:48:15;;;;;;;6.47;5.33;;;;;;;16.88;70.41;96743.47;5013229;28;20180;-70
2022/05/11 04:50:43;;;;;;;5.67;5.17;;;;;;;17.02;70.25;96746.34;5013445;28;20203;-71
2022/05/11 04:53:10;;;;;;;5.50;5.00;;;;;;;17.02;70.39;96747.16;4998003;28;20207;-71
2022/05/11 04:55:35;;;;;;;6.23;5.63;;;;;;;17.25;69.69;96747.63;5012990;28;20571;-71
2022/05/11 04:58:02;;;;;;;6.20;5.37;;;;;;;17.08;70.17;96747.94;5013239;28;20214;-71
2022/05/11 05:00:28;;;;;;;5.77;5.27;;;;;;;17.11;69.99;96742.09;5013073;28;20363;-71
2022/05/11 05:02:53;;;;;;;6.20;5.60;;;;;;;17.09;70.07;96749.53;5013398;28;20298;-71
2022/05/11 05:05:19;;;;;;;7.40;5.43;;;;;;;17.28;69.65;96747.06;5008683;28;20191;-71
2022/05/11 05:07:44;;;;;;;8.03;5.70;;;;;;;17.37;69.35;96742.81;5012246;28;20640;-71
2022/05/11 05:10:13;;;;;;;5.93;5.37;;;;;;;17.31;69.20;96742.03;5012638;28;20282;-71
2022/05/11 05:12:39;;;;;;;6.63;5.53;;;;;;;17.47;68.99;96740.13;5012940;28;20337;-70
2022/05/11 05:15:05;;;;;;;5.93;5.33;;;;;;;17.79;67.67;96748.50;5012495;28;20183;-70
2022/05/11 05:17:31;;;;;;;6.30;5.77;;;;;;;17.94;67.02;96744.19;5012253;28;20246;-70
2022/05/11 05:19:56;;;;;;;5.80;5.20;;;;;;;17.94;66.91;96750.28;4994477;28;20308;-71
2022/05/11 05:22:22;;;;;;;5.85;5.25;;;;;;;17.76;67.24;96753.56;5012862;28;20179;-71
2022/05/11 05:24:48;;;;;;;5.47;4.93;;;;;;;17.74;67.62;96756.47;4994931;28;20199;-71
2022/05/11 05:27:16;;;;;;;6.00;5.33;;;;;;;18.01;66.53;96756.06;5012418;28;20203;-71
2022/05/11 05:32:25;;;;;;;5.75;4.90;;;;;;;18.87;63.76;96754.66;5011906;28;20241;-71
2022/05/11 05:34:51;;;;;;;5.00;4.55;;;;;;;19.11;62.49;96753.59;5012310;28;20191;-71
2022/05/11 05:37:17;;;;;;;5.18;4.47;;;;;;;19.16;62.42;96757.31;5012247;28;20178;-70
2022/05/11 05:39:44;;;;;;;4.50;4.10;;;;;;;19.51;61.38;96764.91;5012549;28;20186;-71
2022/05/11 05:42:20;;;;;;;4.43;3.80;;;;;;;19.80;60.49;96770.94;5012713;28;20245;-71
2022/05/11 05:44:45;;;;;;;6.93;4.45;;;;;;;19.69;60.66;96764.16;5012118;28;20265;-71
2022/05/11 05:47:11;;;;;;;4.55;4.15;;;;;;;19.70;60.90;96763.09;5012433;28;20569;-71
2022/05/11 05:49:37;;;;;;;4.70;4.05;;;;;;;20.00;59.77;96761.91;5012963;28;20575;-71
2022/05/11 05:52:03;;;;;;;4.80;4.40;;;;;;;20.32;58.95;96764.69;5012849;28;20636;-71
2022/05/11 05:54:33;;;;;;;5.45;4.00;;;;;;;20.57;58.28;96762.69;4997211;28;20258;-71
2022/05/11 05:56:59;;;;;;;4.50;4.10;;;;;;;20.59;58.10;96761.31;5011043;28;20274;-71
2022/05/11 05:59:25;;;;;;;4.20;3.80;;;;;;;20.68;57.86;96762.22;5013055;28;20179;-71
2022/05/11 06:01:50;;;;;;;4.82;4.43;;;;;;;20.88;57.71;96763.00;5012577;28;20198;-71
2022/05/11 06:04:16;;;;;;;5.13;3.83;;;;;;;21.07;57.08;96758.38;5007409;28;20258;-71
2022/05/11 06:06:42;;;;;;;4.60;4.20;;;;;;;21.52;55.79;96759.44;5009472;28;20188;-71
2022/05/11 06:09:09;;;;;;;5.20;3.92;;;;;;;21.70;55.88;96761.19;5011630;28;20582;-71
2022/05/11 06:11:35;;;;;;;4.15;3.85;;;;;;;21.59;55.63;96759.81;5012061;28;20581;-72
2022/05/11 06:14:00;;;;;;;4.40;3.88;;;;;;;21.85;54.80;96765.44;5012094;28;20290;-72
2022/05/11 06:16:26;;;;;;;7.40;4.40;;;;;;;21.89;54.77;96763.75;5012335;28;20270;-71
2022/05/11 06:18:51;;;;;;;4.50;4.00;;;;;;;22.18;54.44;96766.88;5011544;28;20692;-72
2022/05/11 06:21:16;;;;;;;4.55;4.18;;;;;;;22.40;53.93;96766.13;5011853;28;20278;-71
2022/05/11 06:23:42;;;;;;;4.68;3.92;;;;;;;22.34;54.05;96768.13;5012091;28;20551;-73
2022/05/11 06:26:09;;;;;;;6.57;3.88;;;;;;;22.23;53.96;96761.44;5009808;28;20552;-71
2022/05/11 06:28:36;;;;;;;4.40;4.00;;;;;;;22.26;53.66;96762.72;5011628;28;20183;-72
2022/05/11 06:31:02;;;;;;;4.30;3.90;;;;;;;22.43;53.73;96765.50;5012100;28;20195;-76
2022/05/11 06:33:27;;;;;;;6.20;3.65;;;;;;;22.80;52.46;96762.50;5010858;28;20192;-70
2022/05/11 06:35:53;;;;;;;4.10;3.80;;;;;;;22.84;52.61;96773.38;5012558;28;20195;-71
2022/05/11 06:38:18;;;;;;;3.58;3.28;;;;;;;22.87;52.66;96769.31;5011979;28;20194;-72
2022/05/11 06:40:43;;;;;;;4.22;3.92;;;;;;;23.03;51.79;96757.91;5012342;28;20188;-72
2022/05/11 06:43:09;;;;;;;5.65;3.78;;;;;;;23.30;51.29;96759.63;5013076;28;20297;-72
2022/05/11 06:45:34;;;;;;;4.10;3.80;;;;;;;23.31;50.97;96757.72;5014310;28;20179;-72
2022/05/11 06:48:00;;;;;;;4.38;3.97;;;;;;;23.25;51.29;96756.28;5003276;28;20195;-72
2022/05/11 06:50:27;;;;;;;3.50;3.20;;;;;;;23.24;50.15;96754.72;5014902;28;20191;-72
2022/05/11 06:52:54;;;;;;;5.95;3.67;;;;;;;23.23;50.17;96755.81;5012699;28;20278;-72
2022/05/11 07:00:48;;;;;;;4.18;3.50;;;;;;;23.28;49.90;96761.03;5008656;28;20179;-71
2022/05/11 07:03:14;;;;;;;5.05;3.70;;;;;;;23.02;50.06;96752.88;5014703;28;20203;-71
2022/05/11 07:05:41;;;;;;;3.58;3.30;;;;;;;23.12;50.24;96744.59;5006059;28;20214;-70
2022/05/11 07:08:08;;;;;;;3.70;3.40;;;;;;;23.27;49.05;96748.75;5014940;28;20191;-70
2022/05/11 07:12:17;;;;;;;5.80;3.30;;;;;;;23.54;48.38;96748.56;5015064;28;20240;-71
2022/05/11 07:13:28;;;;;;;4.63;3.60;;;;;;;23.66;48.30;96746.09;5014574;28;20195;-71
2022/05/11 07:15:54;;;;;;;4.10;3.53;;;;;;;23.56;48.28;96747.16;5014920;28;20238;-72
2022/05/11 07:18:19;;;;;;;3.60;3.33;;;;;;;23.78;48.66;96754.31;5014633;28;20288;-73
2022/05/11 07:20:45;;;;;;;3.55;3.20;;;;;;;23.67;48.29;96745.00;5006459;28;20191;-71
2022/05/11 07:23:12;;;;;;;4.13;3.83;;;;;;;23.87;47.57;96751.63;5010513;28;20754;-71
2022/05/11 07:25:37;;;;;;;4.80;3.70;;;;;;;24.03;47.67;96750.06;5013742;28;20195;-70
2022/05/11 07:28:03;;;;;;;3.40;3.20;;;;;;;24.15;47.08;96749.47;5014216;28;20234;-70
2022/05/11 07:30:34;;;;;;;4.50;3.53;;;;;;;24.36;47.44;96743.19;5014463;28;20183;-71
2022/05/11 07:33:01;;;;;;;3.30;3.10;;;;;;;24.69;46.83;96750.72;5014087;28;20564;-72
2022/05/11 07:35:28;;;;;;;8.80;3.50;;;;;;;24.84;46.13;96753.72;5014012;28;20184;-71
2022/05/11 07:37:53;;;;;;;3.90;3.38;;;;;;;24.89;46.32;96744.75;5014365;28;20599;-71
2022/05/11 07:40:21;;;;;;;3.05;2.85;;;;;;;25.10;45.15;96752.88;4996428;28;20195;-71
2022/05/11 07:42:47;;;;;;;3.60;3.30;;;;;;;25.15;45.26;96747.34;5014249;28;20207;-71
2022/05/11 07:45:14;;;;;;;3.83;3.55;;;;;;;25.28;44.71;96741.00;5003181;28;20593;-72
2022/05/11 07:47:39;;;;;;;4.32;3.28;;;;;;;25.08;44.26;96742.47;5013802;28;20250;-71
2022/05/11 07:50:08;;;;;;;4.93;3.42;;;;;;;24.81;44.58;96742.81;5014288;28;20288;-71
2022/05/11 07:52:34;;;;;;;4.13;3.40;;;;;;;25.04;44.18;96746.13;5013672;28;20552;-71
2022/05/11 07:54:59;;;;;;;3.10;2.90;;;;;;;24.90;44.09;96743.63;5013707;28;20191;-71
2022/05/11 08:00:10;;;;;;;3.90;3.05;;;;;;;24.95;44.00;96734.63;5013767;28;20210;-71
2022/05/11 08:02:36;;;;;;;5.18;3.50;;;;;;;25.02;43.78;96742.97;5013627;28;20188;-71
2022/05/11 08:05:30;;;;;;;3.10;2.90;;;;;;;25.27;44.03;96737.50;4999967;28;20183;-72
2022/05/11 08:07:57;;;;;;;6.22;3.17;;;;;;;25.41;44.19;96739.22;5012188;28;20202;-72
2022/05/11 08:10:29;;;;;;;4.50;3.25;;;;;;;25.62;43.61;96735.50;5013865;28;20187;-72
2022/05/11 08:12:54;;;;;;;8.02;3.35;;;;;;;25.83;43.83;96738.22;5013872;28;20241;-71
2022/05/11 08:15:23;;;;;;;3.60;3.30;;;;;;;25.41;43.48;96733.84;5013841;28;20184;-71
2022/05/11 08:17:50;;;;;;;3.97;2.63;;;;;;;25.05;42.82;96736.97;5013761;28;20219;-69
2022/05/11 08:20:24;;;;;;;3.38;3.08;;;;;;;25.21;43.08;96736.13;5013836;28;20227;-69
2022/05/11 08:22:51;;;;;;;3.80;3.42;;;;;;;25.21;43.00;96732.66;5013712;28;20195;-68
2022/05/11 08:25:22;;;;;;;3.08;2.78;;;;;;;25.19;42.55;96730.28;5013472;28;20179;-68
2022/05/11 08:27:49;;;;;;;3.05;2.85;;;;;;;25.41;42.72;96725.78;5013328;28;20237;-68
2022/05/11 08:33:19;;;;;;;4.75;3.00;;;;;;;25.46;42.29;96725.59;5013531;28;20234;-69
2022/05/11 08:35:45;;;;;;;3.13;2.92;;;;;;;25.48;42.32;96728.72;5013420;28;20632;-68
2022/05/11 08:38:11;;;;;;;3.30;3.03;;;;;;;25.41;42.10;96725.78;5013235;28;20191;-68
2022/05/11 08:40:39;;;;;;;3.17;2.97;;;;;;;25.70;41.70;96725.81;4995011;28;20687;-68
2022/05/11 08:43:13;;;;;;;3.75;3.03;;;;;;;25.71;41.97;96716.63;5012811;28;20555;-68
2022/05/11 08:45:45;;;;;;;2.88;2.67;;;;;;;25.92;40.65;96717.44;5012589;28;20178;-68
2022/05/11 08:48:22;;;;;;;3.33;3.03;;;;;;;26.03;40.51;96723.22;5013651;28;20639;-67
2022/05/11 08:50:47;;;;;;;4.10;2.85;;;;;;;25.75;41.09;96719.44;5012557;28;20221;-68
2022/05/11 08:53:28;;;;;;;3.28;2.88;;;;;;;25.74;40.91;96715.22;5012479;28;20187;-68
2022/05/11 08:55:56;;;;;;;3.95;3.13;;;;;;;25.91;40.96;96707.03;5012748;28;20187;-69
2022/05/11 08:58:24;;;;;;;3.22;2.92;;;;;;;25.76;40.62;96707.59;5012533;28;20547;-68
2022/05/11 09:00:54;;;;;;;3.08;2.83;;;;;;;25.75;40.64;96706.03;4995048;28;20603;-68
2022/05/11 09:03:34;;;;;;;3.90;2.97;;;;;;;25.74;40.85;96702.56;4991273;28;20207;-68
2022/05/11 09:06:05;;;;;;;7.45;3.40;;;;;;;26.05;40.76;96711.03;5012728;28;20205;-69
2022/05/11 09:08:37;;;;;;;3.50;3.20;;;;;;;26.01;41.04;96706.66;5003548;28;20230;-68
2022/05/11 09:11:10;;;;;;;3.30;3.05;;;;;;;26.05;40.77;96702.19;4995415;28;20187;-69
2022/05/11 09:13:39;;;;;;;3.83;3.53;;;;;;;26.18;41.13;96706.53;5011832;28;20180;-68
2022/05/11 09:16:06;;;;;;;3.53;3.33;;;;;;;26.18;40.89;96705.72;5013042;28;20198;-68
2022/05/11 09:18:31;;;;;;;3.92;3.20;;;;;;;26.01;40.45;96709.34;5012000;28;20227;-68
2022/05/11 09:20:59;;;;;;;4.20;3.08;;;;;;;26.23;40.39;96705.56;5011915;28;20195;-68
2022/05/11 09:23:36;;;;;;;3.95;3.15;;;;;;;26.16;40.27;96706.06;5012375;28;20738;-68
2022/05/11 09:26:05;;;;;;;5.25;3.17;;;;;;;26.12;40.05;96704.34;5006464;28;20257;-69
2022/05/11 09:28:33;;;;;;;6.55;3.00;;;;;;;25.97;40.35;96706.50;5010607;28;20187;-68
2022/05/11 09:31:06;;;;;;;5.57;3.08;;;;;;;26.19;40.57;96700.03;5012703;28;20195;-68
2022/05/11 09:33:40;;;;;;;3.83;3.53;;;;;;;26.11;40.75;96702.78;5012271;28;20187;-68
2022/05/11 09:36:07;;;;;;;3.75;3.10;;;;;;;26.14;40.79;96694.84;5012531;28;20179;-68
2022/05/11 09:38:37;;;;;;;3.60;3.30;;;;;;;25.98;41.32;96694.66;5004745;28;20271;-68
2022/05/11 09:41:21;;;;;;;4.85;3.40;;;;;;;26.09;41.44;96695.81;5012656;28;20180;-67
2022/05/11 09:43:53;;;;;;;8.20;3.67;;;;;;;26.07;41.54;96692.69;5025961;28;20199;-68
2022/05/11 09:46:31;;;;;;;4.47;3.60;;;;;;;26.13;41.26;96684.44;5012625;28;20624;-68
2022/05/11 09:49:28;;;;;;;4.82;3.80;;;;;;;26.06;41.31;96688.44;5012609;28;20189;-68
2022/05/11 09:51:57;;;;;;;4.63;4.10;;;;;;;26.18;40.94;96679.66;5012719;28;20191;-67
2022/05/11 09:54:38;;;;;;;3.65;3.35;;;;;;;26.20;41.20;96681.97;5012420;28;20190;-68
2022/05/11 09:57:09;;;;;;;4.03;3.30;;;;;;;26.29;40.92;96678.16;5012188;28;20321;-68
2022/05/11 09:59:37;;;;;;;4.05;3.70;;;;;;;26.28;42.09;96678.47;5012014;28;20191;-69
2022/05/11 10:02:22;;;;;;;4.10;3.80;;;;;;;26.35;41.46;96673.38;5009185;28;20278;-69
2022/05/11 10:04:55;;;;;;;4.32;3.35;;;;;;;26.25;41.08;96669.16;5001999;28;20317;-69
2022/05/11 10:07:22;;;;;;;3.50;3.30;;;;;;;26.47;41.07;96676.09;5010164;28;20609;-69
2022/05/11 10:09:55;;;;;;;4.25;3.83;;;;;;;26.34;41.36;96663.72;5011387;28;20183;-71
2022/05/11 10:12:26;;;;;;;4.07;3.60;;;;;;;26.51;39.60;96663.56;4992359;28;20696;-69
2022/05/11 10:23:22;;;;;;;4.13;3.53;;;;;;;26.76;39.23;96646.34;5015247;28;20272;-71
2022/05/11 10:25:58;;;;;;;4.00;3.65;;;;;;;26.93;38.58;96642.69;5016056;28;20187;-72
2022/05/11 10:28:49;;;;;;;3.58;3.28;;;;;;;27.07;38.37;96645.06;5015815;28;20290;-71
2022/05/11 10:31:20;;;;;;;4.13;3.30;;;;;;;26.99;38.63;96643.25;4992020;28;20192;-71
2022/05/11 10:34:16;;;;;;;3.72;3.10;;;;;;;27.02;37.43;96634.53;4997353;28;20628;-71
2022/05/11 10:37:06;;;;;;;4.55;3.35;;;;;;;26.76;38.08;96626.72;5015486;28;20691;-71
2022/05/11 10:39:43;;;;;;;3.60;3.30;;;;;;;27.01;37.89;96627.56;5013691;28;20179;-71
2022/05/11 10:42:43;;;;;;;3.67;3.38;;;;;;;27.14;37.92;96619.16;5010631;28;20245;-70
2022/05/11 10:45:17;;;;;;;6.07;3.30;;;;;;;27.27;37.38;96628.00;5015275;28;20199;-70
2022/05/11 10:48:00;;;;;;;3.55;3.25;;;;;;;27.44;36.63;96627.78;5015615;28;20242;-70
2022/05/11 10:50:41;;;;;;;3.10;2.90;;;;;;;27.43;36.63;96623.50;5013515;28;20188;-70
2022/05/11 10:53:33;;;;;;;3.30;3.03;;;;;;;27.53;36.56;96617.69;5015175;28;20198;-70
2022/05/11 10:56:17;;;;;;;3.47;3.08;;;;;;;27.41;36.62;96616.91;4997828;28;20198;-70
2022/05/11 10:58:48;;;;;;;4.10;2.65;;;;;;;27.42;35.75;96608.47;5015531;28;20266;-68
2022/05/11 11:01:16;;;;;;;3.10;2.80;;;;;;;27.18;35.71;96606.63;5015096;28;20194;-69
2022/05/11 11:04:15;;;;;;;3.40;2.90;;;;;;;27.29;35.97;96596.16;5006689;28;20277;-69
2022/05/11 11:10:02;;;;;;;3.65;2.67;;;;;;;27.83;34.81;96596.63;5014635;28;20198;-69
2022/05/11 11:12:43;;;;;;;9.00;2.95;;;;;;;27.96;34.02;96600.84;5008052;28;20175;-69
2022/05/11 11:15:13;;;;;;;4.82;2.58;;;;;;;27.91;34.28;96586.84;5014443;28;20577;-69
2022/05/11 11:17:42;;;;;;;4.72;2.95;;;;;;;27.97;33.58;96588.94;5014904;28;20219;-68
2022/05/11 11:20:10;;;;;;;5.22;2.97;;;;;;;27.81;33.99;96587.31;5014129;28;20333;-68
2022/05/11 11:23:05;;;;;;;2.80;2.60;;;;;;;27.88;33.71;96585.59;5015075;28;20269;-70
2022/05/11 11:25:51;;;;;;;3.33;2.67;;;;;;;27.89;33.57;96583.69;5014802;28;20229;-70
2022/05/11 11:28:18;;;;;;;2.70;2.50;;;;;;;27.91;33.56;96570.66;5014987;28;20179;-69
2022/05/11 11:30:59;;;;;;;3.15;2.90;;;;;;;27.89;33.02;96564.81;5013758;28;20198;-71
2022/05/11 11:33:30;;;;;;;6.90;2.80;;;;;;;27.84;32.96;96565.06;5007598;28;20195;-70
2022/05/11 11:36:00;;;;;;;2.55;2.30;;;;;;;27.92;32.71;96559.53;5014124;28;20274;-71
2022/05/11 11:38:47;;;;;;;3.17;2.60;;;;;;;28.17;32.53;96562.94;5014437;28;20274;-69
2022/05/11 11:41:28;;;;;;;4.57;2.67;;;;;;;28.23;32.35;96564.25;5014912;28;20183;-68
2022/05/11 11:44:01;;;;;;;6.35;2.92;;;;;;;28.12;30.75;96560.47;5014242;28;20211;-68
2022/05/11 11:46:41;;;;;;;2.78;2.30;;;;;;;27.87;31.38;96553.59;5014539;28;20191;-69
2022/05/11 11:49:19;;;;;;;2.97;2.40;;;;;;;27.83;29.91;96560.81;5014874;28;20215;-68
2022/05/11 11:51:50;;;;;;;2.92;2.72;;;;;;;27.87;30.99;96561.69;5014705;28;20628;-68
2022/05/11 11:54:48;;;;;;;2.45;2.30;;;;;;;27.96;30.02;96548.88;5013714;28;20632;-68
2022/05/11 11:57:23;;;;;;;2.47;2.30;;;;;;;28.12;30.10;96549.69;4982123;28;20622;-69
2022/05/11 11:59:54;;;;;;;3.83;2.33;;;;;;;27.86;30.42;96547.47;5008390;28;20182;-68
2022/05/11 12:02:36;;;;;;;3.15;2.10;;;;;;;27.81;30.57;96536.13;5002300;28;20220;-68
2022/05/11 12:05:06;;;;;;;2.97;2.30;;;;;;;27.90;29.79;96534.84;5013418;28;20747;-69
2022/05/11 12:16:58;;;;;;;2.47;2.35;;;;;;;27.88;29.70;96522.84;5014059;28;20666;-68
2022/05/11 12:19:29;;;;;;;3.03;2.35;;;;;;;28.06;29.81;96524.09;4974873;28;20220;-68
2022/05/11 12:22:12;;;;;;;2.72;2.17;;;;;;;28.08;29.05;96522.63;4973570;28;20197;-68
2022/05/11 12:24:42;;;;;;;3.00;2.00;;;;;;;28.15;29.26;96513.19;4974487;28;20215;-68
2022/05/11 12:27:15;;;;;;;4.38;2.58;;;;;;;28.00;29.11;96514.69;4968296;28;20185;-71